Portada
METAR-TAF:

METAR-TAF

Aeroports :

Vavaʻu, Tonga

latitud: 18-35-07S, longitud: 173-57-42W, altitud: 72 m

Observació

L'informe es va fer fa 35 minuts, a les 12:00 UTC
Vent calma
Temperatura 24°C
Humitat 100%
Pressió 1013 hPa
Visibilitat 10 km o més
Núvols disperses a una alçada de 1700 ft
Cel ennuvolat a una alçada de 11000 ft

METAR: NFTV 171200Z 00000KT 9999 SCT017 BKN110 24/24 Q1013

Hora: 01:35 (12:35 UTC)

Pronòstic

L'informe es va fer fa 48 minuts, a les 11:47 UTC
Pronòstic vàlid del 17 a les 12 UTC al 18 a les 12 UTC
Vent 7 kt del Est
Visibilitat 10 km o més
Núvols disperses a una alçada de 800 ft
Núvols disperses a una alçada de 1600 ft
Núvols disperses a una alçada de 10000 ft

TAF: NFTV 171147Z 1712/1812 10007KT 9999 SCT008 SCT016 SCT100

Observacions i pronòstics meteorològics de més de 4000 aeroports (METAR i TAF).

Les estacions disponibles són els punts grocs i vermells al mapa.

Posi el ratolí al punt desitjat per veure el nom de l'estació.

Feu clic per veure les observacions i els pronòstics meteorològics.

Per canviar el mapa: feu clic els botons verds amb una creu de color negre per apropar; al botó verd amb un guió per allunyar la imatge; o en les fletxes verdes per a mapes adjacents.


METAR-TAF: